Hamburg, New York
Current Conditions -  °F | °C
As of 7:04 AM on Friday 19 Dec 2014 (Local Time) from KBUF Reporting Station
Light Snow Light Snow  
Wind Chill: 18°   Ceiling: 1400
Heat Index: 25°   Visibility: 9mi
Dew Point: 20°   Wind: 6mph
Humidity: 81%   Direction: 290°WNW
Pressure: 30.14"   Gusts: NA
Location:  42.72°N, 78.83°W
Report Text: KBUF 191204Z 29005KT 9SM -SN OVC014 M04/M07 A3014 RMK AO2 P0000 T10391067
Loading
Personal Weather Stations






























Interactive Weather Map New forecast layout! Learn more

10-Day Weather Forecast

Advertisements
Track Severe Weather on mobile